Inicio METAR Ruta Wind Satelite

Informe Meteorológico

Fecha: 2020/07/02 01:11:13 Local
2020.07.02 06:11 UTC


Estado: VENCIDO
Operación:VFR
Neiva / Benito Salas, Colombia (SKNV) 02-58N 075-18W 443M
2020.07.01 2300 UTC
Wind: from the N (360 degrees) at 13 MPH (11 KT):0
Visibility: greater than 7 mile(s):0
Sky conditions: partly cloudy
Temperature: 86 F (30 C)
Dew Point: 68 F (20 C)
Relative Humidity: 55%
Pressure (altimeter): 29.77 in. Hg (1008 hPa)
ob: SKNV 012300Z 36011KT 9999 FEW045 SCT120 30/20 A2977
cycle: 23

SKNV 012200Z 01012KT 340V040 9999 FEW045 32/21 A2974
SKNV 012100Z 03006KT 350V080 9999 FEW045 34/19 A2973
SKNV 012000Z 13004KT 080V190 9999 FEW040 SCT230 35/19 A2975
SKNV 011900Z VRB03KT 9999 FEW040 34/20 A2979
SKNV 011800Z VRB03KT 9999 FEW035 SCT120 32/20 A2985